Terminal Aerodrome Forecast
Issued by NWS Greer, SC

Home | Current Version | Previous Version | Text Only | Print | Product List | Glossary On
Versions: 1 2 3 4 5 6 7 8 9 10 11 12 13 14 15 16 17 18 19 20 21 22 23
000
FTUS42 KGSP 261733
TAFGSP
TAF
KGSP 261733Z 2618/2718 31007G16KT P6SM BKN045
     FM262200 31010G20KT P6SM SCT150
     FM270400 31006KT P6SM SCT090
     FM271000 30004KT P6SM BKN080
     FM271200 31004KT P6SM SCT080=

USA.gov is the U.S. government's official web portal to all federal, state and local government web resources and services.